sensor_id;sensor_type;location;lat;lon;timestamp;P1;durP1;ratioP1;P2;durP2;ratioP2
45848;SDS011;31567;54.600;9.842;2023-06-24T00:01:39;13.23;;;8.63;;
45848;SDS011;31567;54.600;9.842;2023-06-24T00:05:18;10.77;;;9.40;;
45848;SDS011;31567;54.600;9.842;2023-06-24T00:08:58;12.38;;;9.00;;
45848;SDS011;31567;54.600;9.842;2023-06-24T00:12:41;12.40;;;9.20;;
45848;SDS011;31567;54.600;9.842;2023-06-24T00:16:21;11.88;;;9.02;;
45848;SDS011;31567;54.600;9.842;2023-06-24T00:20:06;10.23;;;9.02;;
45848;SDS011;31567;54.600;9.842;2023-06-24T00:23:50;12.63;;;9.40;;
45848;SDS011;31567;54.600;9.842;2023-06-24T00:27:29;9.93;;;8.93;;
45848;SDS011;31567;54.600;9.842;2023-06-24T00:31:09;12.35;;;10.13;;
45848;SDS011;31567;54.600;9.842;2023-06-24T00:34:50;12.55;;;9.70;;
45848;SDS011;31567;54.600;9.842;2023-06-24T00:38:29;11.35;;;10.18;;
45848;SDS011;31567;54.600;9.842;2023-06-24T00:42:11;14.25;;;10.90;;
45848;SDS011;31567;54.600;9.842;2023-06-24T00:45:50;10.93;;;9.82;;
45848;SDS011;31567;54.600;9.842;2023-06-24T00:49:32;13.20;;;11.32;;
45848;SDS011;31567;54.600;9.842;2023-06-24T00:53:11;15.07;;;10.75;;
45848;SDS011;31567;54.600;9.842;2023-06-24T00:56:51;12.27;;;10.90;;
45848;SDS011;31567;54.600;9.842;2023-06-24T01:00:33;10.73;;;9.32;;
45848;SDS011;31567;54.600;9.842;2023-06-24T01:04:13;11.32;;;10.13;;
45848;SDS011;31567;54.600;9.842;2023-06-24T01:07:55;10.80;;;9.70;;
45848;SDS011;31567;54.600;9.842;2023-06-24T01:11:35;10.93;;;9.75;;
45848;SDS011;31567;54.600;9.842;2023-06-24T01:15:15;11.80;;;9.98;;
45848;SDS011;31567;54.600;9.842;2023-06-24T01:18:57;12.82;;;10.13;;
45848;SDS011;31567;54.600;9.842;2023-06-24T01:26:34;10.60;;;9.52;;
45848;SDS011;31567;54.600;9.842;2023-06-24T01:34:33;13.40;;;10.13;;
45848;SDS011;31567;54.600;9.842;2023-06-24T01:38:31;11.02;;;9.93;;
45848;SDS011;31567;54.600;9.842;2023-06-24T01:42:19;11.70;;;10.50;;
45848;SDS011;31567;54.600;9.842;2023-06-24T01:46:01;12.77;;;10.27;;
45848;SDS011;31567;54.600;9.842;2023-06-24T01:49:42;11.73;;;10.52;;
45848;SDS011;31567;54.600;9.842;2023-06-24T01:53:24;12.50;;;11.30;;
45848;SDS011;31567;54.600;9.842;2023-06-24T01:57:08;12.27;;;11.07;;
45848;SDS011;31567;54.600;9.842;2023-06-24T02:00:48;14.43;;;11.60;;
45848;SDS011;31567;54.600;9.842;2023-06-24T02:04:30;13.85;;;12.32;;
45848;SDS011;31567;54.600;9.842;2023-06-24T02:08:11;12.73;;;11.20;;
45848;SDS011;31567;54.600;9.842;2023-06-24T02:11:53;13.40;;;11.30;;
45848;SDS011;31567;54.600;9.842;2023-06-24T02:15:33;14.32;;;11.18;;
45848;SDS011;31567;54.600;9.842;2023-06-24T02:19:14;13.98;;;12.00;;
45848;SDS011;31567;54.600;9.842;2023-06-24T02:22:56;13.85;;;10.90;;
45848;SDS011;31567;54.600;9.842;2023-06-24T02:26:37;11.93;;;10.70;;
45848;SDS011;31567;54.600;9.842;2023-06-24T02:30:20;14.48;;;11.60;;
45848;SDS011;31567;54.600;9.842;2023-06-24T02:34:00;14.30;;;11.63;;
45848;SDS011;31567;54.600;9.842;2023-06-24T02:37:40;16.10;;;11.20;;
45848;SDS011;31567;54.600;9.842;2023-06-24T02:41:20;12.52;;;11.35;;
45848;SDS011;31567;54.600;9.842;2023-06-24T02:44:59;13.27;;;11.35;;
45848;SDS011;31567;54.600;9.842;2023-06-24T02:48:40;14.38;;;12.27;;
45848;SDS011;31567;54.600;9.842;2023-06-24T02:52:21;15.18;;;12.52;;
45848;SDS011;31567;54.600;9.842;2023-06-24T02:56:01;12.70;;;11.20;;
45848;SDS011;31567;54.600;9.842;2023-06-24T02:59:43;13.18;;;11.77;;
45848;SDS011;31567;54.600;9.842;2023-06-24T03:03:22;14.25;;;12.15;;
45848;SDS011;31567;54.600;9.842;2023-06-24T03:07:02;14.15;;;11.38;;
45848;SDS011;31567;54.600;9.842;2023-06-24T03:10:41;14.35;;;12.05;;
45848;SDS011;31567;54.600;9.842;2023-06-24T03:14:21;13.77;;;11.30;;
45848;SDS011;31567;54.600;9.842;2023-06-24T03:18:01;15.77;;;12.85;;
45848;SDS011;31567;54.600;9.842;2023-06-24T03:21:41;14.32;;;12.57;;
45848;SDS011;31567;54.600;9.842;2023-06-24T03:25:20;14.23;;;12.30;;
45848;SDS011;31567;54.600;9.842;2023-06-24T03:29:00;15.85;;;11.55;;
45848;SDS011;31567;54.600;9.842;2023-06-24T03:32:40;18.38;;;12.95;;
45848;SDS011;31567;54.600;9.842;2023-06-24T03:36:19;16.75;;;12.55;;
45848;SDS011;31567;54.600;9.842;2023-06-24T03:39:59;16.05;;;12.35;;
45848;SDS011;31567;54.600;9.842;2023-06-24T03:43:39;14.90;;;12.35;;
45848;SDS011;31567;54.600;9.842;2023-06-24T03:47:20;14.05;;;11.70;;
45848;SDS011;31567;54.600;9.842;2023-06-24T03:51:00;13.00;;;11.55;;
45848;SDS011;31567;54.600;9.842;2023-06-24T03:54:39;13.98;;;12.38;;
45848;SDS011;31567;54.600;9.842;2023-06-24T03:58:19;16.45;;;12.05;;
45848;SDS011;31567;54.600;9.842;2023-06-24T04:01:59;12.80;;;10.73;;
45848;SDS011;31567;54.600;9.842;2023-06-24T04:05:39;13.00;;;10.38;;
45848;SDS011;31567;54.600;9.842;2023-06-24T04:09:19;12.85;;;10.65;;
45848;SDS011;31567;54.600;9.842;2023-06-24T04:12:58;11.82;;;10.60;;
45848;SDS011;31567;54.600;9.842;2023-06-24T04:16:38;12.57;;;10.57;;
45848;SDS011;31567;54.600;9.842;2023-06-24T04:20:17;13.25;;;11.30;;
45848;SDS011;31567;54.600;9.842;2023-06-24T04:23:57;11.27;;;10.27;;
45848;SDS011;31567;54.600;9.842;2023-06-24T04:27:36;10.93;;;9.82;;
45848;SDS011;31567;54.600;9.842;2023-06-24T04:31:16;13.00;;;10.40;;
45848;SDS011;31567;54.600;9.842;2023-06-24T04:34:57;13.85;;;10.50;;
45848;SDS011;31567;54.600;9.842;2023-06-24T04:38:38;14.23;;;11.35;;
45848;SDS011;31567;54.600;9.842;2023-06-24T04:42:18;12.75;;;10.40;;
45848;SDS011;31567;54.600;9.842;2023-06-24T04:45:57;14.10;;;9.20;;
45848;SDS011;31567;54.600;9.842;2023-06-24T04:49:37;10.95;;;9.65;;
45848;SDS011;31567;54.600;9.842;2023-06-24T04:53:16;11.65;;;8.95;;
45848;SDS011;31567;54.600;9.842;2023-06-24T04:56:56;14.10;;;9.88;;
45848;SDS011;31567;54.600;9.842;2023-06-24T05:00:36;10.85;;;9.05;;
45848;SDS011;31567;54.600;9.842;2023-06-24T05:04:16;10.10;;;8.95;;
45848;SDS011;31567;54.600;9.842;2023-06-24T05:07:55;12.98;;;8.00;;
45848;SDS011;31567;54.600;9.842;2023-06-24T05:11:35;13.48;;;8.68;;
45848;SDS011;31567;54.600;9.842;2023-06-24T05:15:14;12.35;;;8.18;;
45848;SDS011;31567;54.600;9.842;2023-06-24T05:18:54;9.25;;;8.35;;
45848;SDS011;31567;54.600;9.842;2023-06-24T05:22:34;9.30;;;7.75;;
45848;SDS011;31567;54.600;9.842;2023-06-24T05:26:14;13.63;;;8.77;;
45848;SDS011;31567;54.600;9.842;2023-06-24T05:29:53;9.35;;;7.57;;
45848;SDS011;31567;54.600;9.842;2023-06-24T05:33:33;11.35;;;8.38;;
45848;SDS011;31567;54.600;9.842;2023-06-24T05:37:13;12.88;;;8.60;;
45848;SDS011;31567;54.600;9.842;2023-06-24T05:40:53;9.05;;;8.15;;
45848;SDS011;31567;54.600;9.842;2023-06-24T05:44:32;11.52;;;8.77;;
45848;SDS011;31567;54.600;9.842;2023-06-24T05:48:12;10.63;;;8.50;;
45848;SDS011;31567;54.600;9.842;2023-06-24T05:51:53;9.02;;;8.07;;
45848;SDS011;31567;54.600;9.842;2023-06-24T05:55:33;11.52;;;9.20;;
45848;SDS011;31567;54.600;9.842;2023-06-24T05:59:12;9.27;;;8.18;;
45848;SDS011;31567;54.600;9.842;2023-06-24T06:02:52;8.43;;;7.60;;
45848;SDS011;31567;54.600;9.842;2023-06-24T06:06:31;11.40;;;7.47;;
45848;SDS011;31567;54.600;9.842;2023-06-24T06:10:11;7.65;;;6.53;;
45848;SDS011;31567;54.600;9.842;2023-06-24T06:13:50;10.00;;;7.50;;
45848;SDS011;31567;54.600;9.842;2023-06-24T06:17:32;10.68;;;7.38;;
45848;SDS011;31567;54.600;9.842;2023-06-24T06:21:12;8.57;;;7.60;;
45848;SDS011;31567;54.600;9.842;2023-06-24T06:24:51;9.75;;;7.18;;
45848;SDS011;31567;54.600;9.842;2023-06-24T06:28:31;9.35;;;7.18;;
45848;SDS011;31567;54.600;9.842;2023-06-24T06:32:10;9.40;;;5.90;;
45848;SDS011;31567;54.600;9.842;2023-06-24T06:35:50;10.63;;;6.20;;
45848;SDS011;31567;54.600;9.842;2023-06-24T06:39:29;6.30;;;5.18;;
45848;SDS011;31567;54.600;9.842;2023-06-24T06:43:09;6.40;;;5.75;;
45848;SDS011;31567;54.600;9.842;2023-06-24T06:46:48;7.38;;;6.35;;
45848;SDS011;31567;54.600;9.842;2023-06-24T06:50:28;6.60;;;5.65;;
45848;SDS011;31567;54.600;9.842;2023-06-24T06:54:07;8.05;;;6.50;;
45848;SDS011;31567;54.600;9.842;2023-06-24T06:57:47;8.10;;;5.50;;
45848;SDS011;31567;54.600;9.842;2023-06-24T07:01:26;8.43;;;5.97;;
45848;SDS011;31567;54.600;9.842;2023-06-24T07:05:06;9.18;;;6.10;;
45848;SDS011;31567;54.600;9.842;2023-06-24T07:08:46;8.82;;;5.90;;
45848;SDS011;31567;54.600;9.842;2023-06-24T07:12:26;7.47;;;6.00;;
45848;SDS011;31567;54.600;9.842;2023-06-24T07:16:05;7.75;;;6.40;;
45848;SDS011;31567;54.600;9.842;2023-06-24T07:19:45;8.65;;;5.88;;
45848;SDS011;31567;54.600;9.842;2023-06-24T07:23:24;9.02;;;6.45;;
45848;SDS011;31567;54.600;9.842;2023-06-24T07:27:04;5.38;;;4.80;;
45848;SDS011;31567;54.600;9.842;2023-06-24T07:30:44;8.25;;;4.72;;
45848;SDS011;31567;54.600;9.842;2023-06-24T07:34:23;6.68;;;5.30;;
45848;SDS011;31567;54.600;9.842;2023-06-24T07:38:03;5.65;;;4.55;;
45848;SDS011;31567;54.600;9.842;2023-06-24T07:41:43;9.90;;;5.25;;
45848;SDS011;31567;54.600;9.842;2023-06-24T07:45:22;6.93;;;5.13;;
45848;SDS011;31567;54.600;9.842;2023-06-24T07:49:02;5.05;;;4.47;;
45848;SDS011;31567;54.600;9.842;2023-06-24T07:52:42;7.22;;;4.88;;
45848;SDS011;31567;54.600;9.842;2023-06-24T07:56:22;6.45;;;4.40;;
45848;SDS011;31567;54.600;9.842;2023-06-24T08:00:02;6.43;;;4.53;;
45848;SDS011;31567;54.600;9.842;2023-06-24T08:03:42;7.53;;;4.70;;
45848;SDS011;31567;54.600;9.842;2023-06-24T08:07:21;7.53;;;4.40;;
45848;SDS011;31567;54.600;9.842;2023-06-24T08:11:02;7.00;;;4.35;;
45848;SDS011;31567;54.600;9.842;2023-06-24T08:14:42;5.93;;;5.00;;
45848;SDS011;31567;54.600;9.842;2023-06-24T08:18:22;7.18;;;4.88;;
45848;SDS011;31567;54.600;9.842;2023-06-24T08:22:01;6.00;;;4.38;;
45848;SDS011;31567;54.600;9.842;2023-06-24T08:25:41;4.30;;;3.83;;
45848;SDS011;31567;54.600;9.842;2023-06-24T08:29:21;7.05;;;4.88;;
45848;SDS011;31567;54.600;9.842;2023-06-24T08:33:00;4.90;;;4.50;;
45848;SDS011;31567;54.600;9.842;2023-06-24T08:36:40;5.63;;;4.53;;
45848;SDS011;31567;54.600;9.842;2023-06-24T08:40:19;5.82;;;5.05;;
45848;SDS011;31567;54.600;9.842;2023-06-24T08:43:59;6.63;;;5.25;;
45848;SDS011;31567;54.600;9.842;2023-06-24T08:47:39;7.25;;;5.05;;
45848;SDS011;31567;54.600;9.842;2023-06-24T08:51:20;7.57;;;5.00;;
45848;SDS011;31567;54.600;9.842;2023-06-24T08:55:04;4.70;;;4.30;;
45848;SDS011;31567;54.600;9.842;2023-06-24T08:58:46;7.15;;;4.65;;
45848;SDS011;31567;54.600;9.842;2023-06-24T09:02:25;5.47;;;3.58;;
45848;SDS011;31567;54.600;9.842;2023-06-24T09:06:05;3.95;;;3.42;;
45848;SDS011;31567;54.600;9.842;2023-06-24T09:09:45;5.60;;;3.40;;
45848;SDS011;31567;54.600;9.842;2023-06-24T09:13:34;3.92;;;3.00;;
45848;SDS011;31567;54.600;9.842;2023-06-24T09:17:14;4.03;;;3.13;;
45848;SDS011;31567;54.600;9.842;2023-06-24T09:20:54;4.15;;;3.33;;
45848;SDS011;31567;54.600;9.842;2023-06-24T09:24:34;5.43;;;3.58;;
45848;SDS011;31567;54.600;9.842;2023-06-24T09:28:15;4.05;;;3.20;;
45848;SDS011;31567;54.600;9.842;2023-06-24T09:31:54;5.45;;;3.22;;
45848;SDS011;31567;54.600;9.842;2023-06-24T09:35:36;4.85;;;2.92;;
45848;SDS011;31567;54.600;9.842;2023-06-24T09:39:16;4.80;;;3.35;;
45848;SDS011;31567;54.600;9.842;2023-06-24T09:42:56;3.97;;;3.35;;
45848;SDS011;31567;54.600;9.842;2023-06-24T09:46:39;3.60;;;2.72;;
45848;SDS011;31567;54.600;9.842;2023-06-24T09:50:21;4.43;;;3.10;;
45848;SDS011;31567;54.600;9.842;2023-06-24T09:54:00;3.00;;;2.70;;
45848;SDS011;31567;54.600;9.842;2023-06-24T09:57:47;4.50;;;2.97;;
45848;SDS011;31567;54.600;9.842;2023-06-24T10:01:30;3.35;;;3.05;;
45848;SDS011;31567;54.600;9.842;2023-06-24T10:05:15;4.35;;;2.95;;
45848;SDS011;31567;54.600;9.842;2023-06-24T10:08:55;5.78;;;3.40;;
45848;SDS011;31567;54.600;9.842;2023-06-24T10:12:35;4.82;;;3.00;;
45848;SDS011;31567;54.600;9.842;2023-06-24T10:16:15;3.45;;;3.15;;
45848;SDS011;31567;54.600;9.842;2023-06-24T10:19:55;4.07;;;3.05;;
45848;SDS011;31567;54.600;9.842;2023-06-24T10:23:42;3.40;;;3.10;;
45848;SDS011;31567;54.600;9.842;2023-06-24T10:27:30;3.90;;;3.13;;
45848;SDS011;31567;54.600;9.842;2023-06-24T10:31:18;4.82;;;2.80;;
45848;SDS011;31567;54.600;9.842;2023-06-24T10:34:57;3.35;;;3.10;;
45848;SDS011;31567;54.600;9.842;2023-06-24T10:38:37;4.57;;;3.10;;
45848;SDS011;31567;54.600;9.842;2023-06-24T10:46:15;6.13;;;3.60;;
45848;SDS011;31567;54.600;9.842;2023-06-24T10:49:56;5.55;;;3.55;;
45848;SDS011;31567;54.600;9.842;2023-06-24T10:53:35;3.83;;;3.53;;
45848;SDS011;31567;54.600;9.842;2023-06-24T10:57:17;3.53;;;2.90;;
45848;SDS011;31567;54.600;9.842;2023-06-24T11:01:08;3.58;;;3.20;;
45848;SDS011;31567;54.600;9.842;2023-06-24T11:04:51;3.63;;;3.42;;
45848;SDS011;31567;54.600;9.842;2023-06-24T11:08:42;4.22;;;3.53;;
45848;SDS011;31567;54.600;9.842;2023-06-24T11:16:03;4.72;;;4.32;;
45848;SDS011;31567;54.600;9.842;2023-06-24T11:19:43;4.43;;;3.33;;
45848;SDS011;31567;54.600;9.842;2023-06-24T11:23:22;5.28;;;3.45;;
45848;SDS011;31567;54.600;9.842;2023-06-24T11:27:03;3.83;;;3.17;;
45848;SDS011;31567;54.600;9.842;2023-06-24T11:30:43;4.20;;;3.20;;
45848;SDS011;31567;54.600;9.842;2023-06-24T11:34:23;2.97;;;2.75;;
45848;SDS011;31567;54.600;9.842;2023-06-24T11:38:02;3.65;;;3.35;;
45848;SDS011;31567;54.600;9.842;2023-06-24T11:41:42;3.28;;;3.08;;
45848;SDS011;31567;54.600;9.842;2023-06-24T11:45:23;3.40;;;3.15;;
45848;SDS011;31567;54.600;9.842;2023-06-24T11:49:07;3.38;;;2.92;;
45848;SDS011;31567;54.600;9.842;2023-06-24T11:52:48;2.42;;;2.22;;
45848;SDS011;31567;54.600;9.842;2023-06-24T11:56:34;4.20;;;2.67;;
45848;SDS011;31567;54.600;9.842;2023-06-24T12:00:15;3.33;;;3.03;;
45848;SDS011;31567;54.600;9.842;2023-06-24T12:03:55;3.05;;;2.83;;
45848;SDS011;31567;54.600;9.842;2023-06-24T12:07:34;3.28;;;2.70;;
45848;SDS011;31567;54.600;9.842;2023-06-24T12:11:14;3.88;;;2.90;;
45848;SDS011;31567;54.600;9.842;2023-06-24T12:14:53;3.42;;;2.75;;
45848;SDS011;31567;54.600;9.842;2023-06-24T12:18:34;3.30;;;3.00;;
45848;SDS011;31567;54.600;9.842;2023-06-24T12:22:13;6.00;;;3.30;;
45848;SDS011;31567;54.600;9.842;2023-06-24T12:25:53;4.90;;;3.58;;
45848;SDS011;31567;54.600;9.842;2023-06-24T12:29:33;3.33;;;3.03;;
45848;SDS011;31567;54.600;9.842;2023-06-24T12:33:12;5.10;;;3.38;;
45848;SDS011;31567;54.600;9.842;2023-06-24T12:36:52;5.68;;;2.92;;
45848;SDS011;31567;54.600;9.842;2023-06-24T12:40:31;3.45;;;2.75;;
45848;SDS011;31567;54.600;9.842;2023-06-24T12:44:11;4.65;;;2.83;;
45848;SDS011;31567;54.600;9.842;2023-06-24T12:47:50;3.80;;;2.90;;
45848;SDS011;31567;54.600;9.842;2023-06-24T12:51:31;3.30;;;2.95;;
45848;SDS011;31567;54.600;9.842;2023-06-24T12:55:10;2.88;;;2.65;;
45848;SDS011;31567;54.600;9.842;2023-06-24T12:58:50;4.20;;;3.00;;
45848;SDS011;31567;54.600;9.842;2023-06-24T13:02:30;4.60;;;2.70;;
45848;SDS011;31567;54.600;9.842;2023-06-24T13:06:09;3.05;;;2.47;;
45848;SDS011;31567;54.600;9.842;2023-06-24T13:09:49;4.78;;;2.78;;
45848;SDS011;31567;54.600;9.842;2023-06-24T13:13:28;2.55;;;2.33;;
45848;SDS011;31567;54.600;9.842;2023-06-24T13:17:08;2.80;;;2.35;;
45848;SDS011;31567;54.600;9.842;2023-06-24T13:20:48;2.58;;;2.38;;
45848;SDS011;31567;54.600;9.842;2023-06-24T13:24:27;3.95;;;2.40;;
45848;SDS011;31567;54.600;9.842;2023-06-24T13:28:07;3.85;;;2.40;;
45848;SDS011;31567;54.600;9.842;2023-06-24T13:31:46;4.00;;;2.22;;
45848;SDS011;31567;54.600;9.842;2023-06-24T13:35:26;5.82;;;2.70;;
45848;SDS011;31567;54.600;9.842;2023-06-24T13:39:06;2.60;;;2.40;;
45848;SDS011;31567;54.600;9.842;2023-06-24T13:42:47;3.20;;;2.35;;
45848;SDS011;31567;54.600;9.842;2023-06-24T13:46:27;4.40;;;3.03;;
45848;SDS011;31567;54.600;9.842;2023-06-24T13:50:08;2.58;;;2.30;;
45848;SDS011;31567;54.600;9.842;2023-06-24T13:53:48;2.50;;;2.30;;
45848;SDS011;31567;54.600;9.842;2023-06-24T13:57:32;4.45;;;2.53;;
45848;SDS011;31567;54.600;9.842;2023-06-24T14:01:11;4.07;;;2.70;;
45848;SDS011;31567;54.600;9.842;2023-06-24T14:04:51;2.97;;;2.78;;
45848;SDS011;31567;54.600;9.842;2023-06-24T14:08:31;3.97;;;2.90;;
45848;SDS011;31567;54.600;9.842;2023-06-24T14:12:11;3.03;;;2.75;;
45848;SDS011;31567;54.600;9.842;2023-06-24T14:15:51;3.85;;;2.97;;
45848;SDS011;31567;54.600;9.842;2023-06-24T14:19:30;3.42;;;3.10;;
45848;SDS011;31567;54.600;9.842;2023-06-24T14:23:10;4.93;;;2.88;;
45848;SDS011;31567;54.600;9.842;2023-06-24T14:26:49;3.58;;;3.03;;
45848;SDS011;31567;54.600;9.842;2023-06-24T14:30:29;3.70;;;3.22;;
45848;SDS011;31567;54.600;9.842;2023-06-24T14:34:09;4.22;;;3.13;;
45848;SDS011;31567;54.600;9.842;2023-06-24T14:37:48;3.47;;;2.85;;
45848;SDS011;31567;54.600;9.842;2023-06-24T14:41:28;3.80;;;3.50;;
45848;SDS011;31567;54.600;9.842;2023-06-24T14:45:07;4.35;;;3.33;;
45848;SDS011;31567;54.600;9.842;2023-06-24T14:48:47;3.60;;;3.30;;
45848;SDS011;31567;54.600;9.842;2023-06-24T14:52:27;3.80;;;3.50;;
45848;SDS011;31567;54.600;9.842;2023-06-24T14:56:06;5.28;;;3.28;;
45848;SDS011;31567;54.600;9.842;2023-06-24T14:59:46;3.35;;;3.10;;
45848;SDS011;31567;54.600;9.842;2023-06-24T15:03:25;5.72;;;3.47;;
45848;SDS011;31567;54.600;9.842;2023-06-24T15:07:05;3.78;;;3.30;;
45848;SDS011;31567;54.600;9.842;2023-06-24T15:10:44;4.05;;;3.47;;
45848;SDS011;31567;54.600;9.842;2023-06-24T15:14:24;3.50;;;3.22;;
45848;SDS011;31567;54.600;9.842;2023-06-24T15:18:03;5.35;;;3.63;;
45848;SDS011;31567;54.600;9.842;2023-06-24T15:21:44;4.30;;;3.75;;
45848;SDS011;31567;54.600;9.842;2023-06-24T15:25:24;5.05;;;3.67;;
45848;SDS011;31567;54.600;9.842;2023-06-24T15:29:03;4.72;;;3.88;;
45848;SDS011;31567;54.600;9.842;2023-06-24T15:32:43;4.55;;;4.15;;
45848;SDS011;31567;54.600;9.842;2023-06-24T15:36:24;7.55;;;4.13;;
45848;SDS011;31567;54.600;9.842;2023-06-24T15:40:05;5.28;;;4.65;;
45848;SDS011;31567;54.600;9.842;2023-06-24T15:43:45;5.03;;;4.47;;
45848;SDS011;31567;54.600;9.842;2023-06-24T15:47:25;5.28;;;4.78;;
45848;SDS011;31567;54.600;9.842;2023-06-24T15:51:06;4.95;;;4.45;;
45848;SDS011;31567;54.600;9.842;2023-06-24T15:54:46;6.53;;;4.97;;
45848;SDS011;31567;54.600;9.842;2023-06-24T15:58:25;5.43;;;4.93;;
45848;SDS011;31567;54.600;9.842;2023-06-24T16:02:05;6.88;;;4.97;;
45848;SDS011;31567;54.600;9.842;2023-06-24T16:05:45;4.85;;;4.40;;
45848;SDS011;31567;54.600;9.842;2023-06-24T16:09:24;5.13;;;4.60;;
45848;SDS011;31567;54.600;9.842;2023-06-24T16:13:04;5.43;;;4.93;;
45848;SDS011;31567;54.600;9.842;2023-06-24T16:16:43;4.95;;;4.55;;
45848;SDS011;31567;54.600;9.842;2023-06-24T16:20:23;5.30;;;4.80;;
45848;SDS011;31567;54.600;9.842;2023-06-24T16:24:02;5.00;;;4.60;;
45848;SDS011;31567;54.600;9.842;2023-06-24T16:27:42;3.85;;;3.55;;
45848;SDS011;31567;54.600;9.842;2023-06-24T16:31:22;3.53;;;3.15;;
45848;SDS011;31567;54.600;9.842;2023-06-24T16:35:01;3.63;;;3.33;;
45848;SDS011;31567;54.600;9.842;2023-06-24T16:38:41;4.18;;;3.05;;
45848;SDS011;31567;54.600;9.842;2023-06-24T16:42:21;3.88;;;3.53;;
45848;SDS011;31567;54.600;9.842;2023-06-24T16:46:00;5.25;;;3.30;;
45848;SDS011;31567;54.600;9.842;2023-06-24T16:49:40;6.03;;;3.20;;
45848;SDS011;31567;54.600;9.842;2023-06-24T16:53:20;5.35;;;3.70;;
45848;SDS011;31567;54.600;9.842;2023-06-24T16:56:59;5.72;;;4.00;;
45848;SDS011;31567;54.600;9.842;2023-06-24T17:00:39;3.75;;;3.47;;
45848;SDS011;31567;54.600;9.842;2023-06-24T17:04:18;4.50;;;3.97;;
45848;SDS011;31567;54.600;9.842;2023-06-24T17:07:58;3.38;;;3.17;;
45848;SDS011;31567;54.600;9.842;2023-06-24T17:11:37;4.07;;;3.35;;
45848;SDS011;31567;54.600;9.842;2023-06-24T17:15:17;4.05;;;3.75;;
45848;SDS011;31567;54.600;9.842;2023-06-24T17:18:56;3.70;;;3.40;;
45848;SDS011;31567;54.600;9.842;2023-06-24T17:22:36;4.00;;;3.60;;
45848;SDS011;31567;54.600;9.842;2023-06-24T17:26:15;5.88;;;3.58;;
45848;SDS011;31567;54.600;9.842;2023-06-24T17:29:55;6.18;;;3.42;;
45848;SDS011;31567;54.600;9.842;2023-06-24T17:33:35;4.13;;;3.60;;
45848;SDS011;31567;54.600;9.842;2023-06-24T17:37:14;3.42;;;3.22;;
45848;SDS011;31567;54.600;9.842;2023-06-24T17:40:55;4.07;;;3.35;;
45848;SDS011;31567;54.600;9.842;2023-06-24T17:44:34;3.05;;;2.85;;
45848;SDS011;31567;54.600;9.842;2023-06-24T17:48:14;3.90;;;2.90;;
45848;SDS011;31567;54.600;9.842;2023-06-24T17:51:53;4.97;;;3.17;;
45848;SDS011;31567;54.600;9.842;2023-06-24T17:55:33;3.35;;;3.05;;
45848;SDS011;31567;54.600;9.842;2023-06-24T17:59:14;3.28;;;2.97;;
45848;SDS011;31567;54.600;9.842;2023-06-24T18:02:53;3.95;;;3.53;;
45848;SDS011;31567;54.600;9.842;2023-06-24T18:06:33;3.55;;;3.35;;
45848;SDS011;31567;54.600;9.842;2023-06-24T18:10:12;3.95;;;3.60;;
45848;SDS011;31567;54.600;9.842;2023-06-24T18:13:52;3.50;;;3.10;;
45848;SDS011;31567;54.600;9.842;2023-06-24T18:17:31;3.70;;;3.28;;
45848;SDS011;31567;54.600;9.842;2023-06-24T18:21:11;5.50;;;3.20;;
45848;SDS011;31567;54.600;9.842;2023-06-24T18:24:51;4.30;;;3.90;;
45848;SDS011;31567;54.600;9.842;2023-06-24T18:28:32;4.47;;;3.55;;
45848;SDS011;31567;54.600;9.842;2023-06-24T18:32:12;4.25;;;3.72;;
45848;SDS011;31567;54.600;9.842;2023-06-24T18:35:51;4.60;;;3.80;;
45848;SDS011;31567;54.600;9.842;2023-06-24T18:39:31;6.35;;;3.63;;
45848;SDS011;31567;54.600;9.842;2023-06-24T18:43:10;4.22;;;3.70;;
45848;SDS011;31567;54.600;9.842;2023-06-24T18:46:50;4.50;;;3.33;;
45848;SDS011;31567;54.600;9.842;2023-06-24T18:50:29;3.88;;;3.58;;
45848;SDS011;31567;54.600;9.842;2023-06-24T18:54:09;4.20;;;3.30;;
45848;SDS011;31567;54.600;9.842;2023-06-24T18:57:48;3.40;;;3.10;;
45848;SDS011;31567;54.600;9.842;2023-06-24T19:01:28;4.07;;;3.63;;
45848;SDS011;31567;54.600;9.842;2023-06-24T19:05:07;3.80;;;3.50;;
45848;SDS011;31567;54.600;9.842;2023-06-24T19:08:48;3.70;;;3.40;;
45848;SDS011;31567;54.600;9.842;2023-06-24T19:12:31;4.25;;;3.95;;
45848;SDS011;31567;54.600;9.842;2023-06-24T19:16:10;5.00;;;4.60;;
45848;SDS011;31567;54.600;9.842;2023-06-24T19:19:50;4.97;;;3.78;;
45848;SDS011;31567;54.600;9.842;2023-06-24T19:23:29;4.75;;;4.30;;
45848;SDS011;31567;54.600;9.842;2023-06-24T19:27:09;4.55;;;4.15;;
45848;SDS011;31567;54.600;9.842;2023-06-24T19:30:49;4.50;;;4.10;;
45848;SDS011;31567;54.600;9.842;2023-06-24T19:34:28;5.28;;;4.10;;
45848;SDS011;31567;54.600;9.842;2023-06-24T19:38:08;4.50;;;4.20;;
45848;SDS011;31567;54.600;9.842;2023-06-24T19:41:47;4.20;;;3.90;;
45848;SDS011;31567;54.600;9.842;2023-06-24T19:45:27;6.53;;;4.60;;
45848;SDS011;31567;54.600;9.842;2023-06-24T19:49:06;4.90;;;4.32;;
45848;SDS011;31567;54.600;9.842;2023-06-24T19:52:46;5.82;;;4.68;;
45848;SDS011;31567;54.600;9.842;2023-06-24T19:56:25;5.93;;;4.90;;
45848;SDS011;31567;54.600;9.842;2023-06-24T20:00:05;6.55;;;4.50;;
45848;SDS011;31567;54.600;9.842;2023-06-24T20:03:46;4.78;;;4.25;;
45848;SDS011;31567;54.600;9.842;2023-06-24T20:07:25;5.15;;;4.75;;
45848;SDS011;31567;54.600;9.842;2023-06-24T20:11:05;4.95;;;4.47;;
45848;SDS011;31567;54.600;9.842;2023-06-24T20:14:44;4.97;;;4.57;;
45848;SDS011;31567;54.600;9.842;2023-06-24T20:18:24;4.47;;;4.07;;
45848;SDS011;31567;54.600;9.842;2023-06-24T20:22:03;5.25;;;4.75;;
45848;SDS011;31567;54.600;9.842;2023-06-24T20:25:43;4.90;;;4.50;;
45848;SDS011;31567;54.600;9.842;2023-06-24T20:29:23;4.68;;;4.38;;
45848;SDS011;31567;54.600;9.842;2023-06-24T20:33:02;6.80;;;4.43;;
45848;SDS011;31567;54.600;9.842;2023-06-24T20:36:42;8.15;;;5.15;;
45848;SDS011;31567;54.600;9.842;2023-06-24T20:40:21;4.65;;;4.35;;
45848;SDS011;31567;54.600;9.842;2023-06-24T20:44:01;5.15;;;4.70;;
45848;SDS011;31567;54.600;9.842;2023-06-24T20:47:42;4.72;;;4.40;;
45848;SDS011;31567;54.600;9.842;2023-06-24T20:51:21;4.80;;;4.40;;
45848;SDS011;31567;54.600;9.842;2023-06-24T20:55:01;5.05;;;4.65;;
45848;SDS011;31567;54.600;9.842;2023-06-24T20:58:41;4.50;;;4.10;;
45848;SDS011;31567;54.600;9.842;2023-06-24T21:02:21;5.38;;;4.82;;
45848;SDS011;31567;54.600;9.842;2023-06-24T21:06:00;6.43;;;5.13;;
45848;SDS011;31567;54.600;9.842;2023-06-24T21:09:40;5.22;;;4.80;;
45848;SDS011;31567;54.600;9.842;2023-06-24T21:13:19;5.95;;;5.40;;
45848;SDS011;31567;54.600;9.842;2023-06-24T21:16:59;6.50;;;5.18;;
45848;SDS011;31567;54.600;9.842;2023-06-24T21:20:38;6.20;;;5.70;;
45848;SDS011;31567;54.600;9.842;2023-06-24T21:24:18;6.38;;;5.78;;
45848;SDS011;31567;54.600;9.842;2023-06-24T21:27:58;6.60;;;5.90;;
45848;SDS011;31567;54.600;9.842;2023-06-24T21:31:37;6.85;;;6.20;;
45848;SDS011;31567;54.600;9.842;2023-06-24T21:35:17;6.65;;;6.15;;
45848;SDS011;31567;54.600;9.842;2023-06-24T21:38:56;7.03;;;6.32;;
45848;SDS011;31567;54.600;9.842;2023-06-24T21:42:36;6.85;;;6.15;;
45848;SDS011;31567;54.600;9.842;2023-06-24T21:46:15;6.93;;;6.40;;
45848;SDS011;31567;54.600;9.842;2023-06-24T21:49:55;8.18;;;6.90;;
45848;SDS011;31567;54.600;9.842;2023-06-24T21:53:34;7.55;;;6.85;;
45848;SDS011;31567;54.600;9.842;2023-06-24T21:57:15;7.43;;;6.72;;
45848;SDS011;31567;54.600;9.842;2023-06-24T22:00:54;7.35;;;6.32;;
45848;SDS011;31567;54.600;9.842;2023-06-24T22:04:34;6.90;;;5.90;;
45848;SDS011;31567;54.600;9.842;2023-06-24T22:08:13;6.93;;;6.32;;
45848;SDS011;31567;54.600;9.842;2023-06-24T22:11:55;7.13;;;6.50;;
45848;SDS011;31567;54.600;9.842;2023-06-24T22:15:34;8.55;;;6.22;;